Time;durP1;ratioP1;P1;durP2;ratioP2;P2;SDS_P1;SDS_P2;PMS_P1;PMS_P2;Temp;Humidity;BMP_temperature;BMP_pressure;BME280_temperature;BME280_humidity;BME280_pressure;Samples;Min_cycle;Max_cycle;Signal;HPM_P1;HPM_P2
2022/01/25 00:10:41;;;;;;;10.07;7.23;;;;;;;-8.05;70.36;96452.94;5088948;28;20219;-70
2022/01/25 00:24:28;;;;;;;11.00;6.70;;;;;;;-7.75;69.38;96459.66;5089245;28;20741;-70
2022/01/25 00:29:59;;;;;;;7.57;6.37;;;;;;;-7.85;69.87;96456.56;5081643;28;20605;-70
2022/01/25 00:32:27;;;;;;;9.30;6.40;;;;;;;-7.94;69.70;96477.50;5089293;28;20201;-72
2022/01/25 00:34:54;;;;;;;11.93;5.83;;;;;;;-8.18;70.41;96475.19;5089005;28;20242;-69
2022/01/25 00:37:21;;;;;;;11.33;7.73;;;;;;;-8.29;70.66;96469.59;5089889;28;20198;-70
2022/01/25 00:39:48;;;;;;;13.10;6.70;;;;;;;-8.44;70.42;96467.09;5088913;28;20598;-70
2022/01/25 00:42:14;;;;;;;8.23;6.67;;;;;;;-8.54;70.49;96469.75;5090395;28;21536;-70
2022/01/25 00:44:46;;;;;;;11.07;6.80;;;;;;;-8.78;70.96;96469.09;5089444;28;20837;-71
2022/01/25 00:47:15;;;;;;;6.57;5.50;;;;;;;-8.73;70.94;96443.13;5089069;28;20197;-70
2022/01/25 00:49:44;;;;;;;12.30;6.63;;;;;;;-8.72;70.73;96461.22;5088585;28;20197;-71
2022/01/25 00:53:52;;;;;;;7.63;5.47;;;;;;;-8.71;71.36;96466.25;5088969;28;20209;-71
2022/01/25 00:55:09;;;;;;;10.27;5.63;;;;;;;-8.81;71.69;96463.13;5088462;28;20220;-71
2022/01/25 00:57:36;;;;;;;8.00;5.53;;;;;;;-8.80;71.65;96453.34;5086236;28;20198;-71
2022/01/25 01:00:03;;;;;;;8.23;5.20;;;;;;;-8.75;72.16;96461.91;5088775;28;20258;-71
2022/01/25 01:02:31;;;;;;;6.90;5.10;;;;;;;-8.49;71.67;96457.72;5087657;28;20273;-70
2022/01/25 01:04:59;;;;;;;6.93;5.97;;;;;;;-8.34;71.00;96454.53;5087832;28;20213;-70
2022/01/25 01:07:25;;;;;;;7.40;5.60;;;;;;;-8.36;71.05;96450.28;5087970;28;20266;-71
2022/01/25 01:09:53;;;;;;;7.20;5.77;;;;;;;-8.24;71.56;96451.00;5086547;28;20269;-71
2022/01/25 01:12:41;;;;;;;7.40;5.10;;;;;;;-8.49;71.98;96451.16;5085076;28;20206;-72
2022/01/25 01:15:20;;;;;;;10.47;5.13;;;;;;;-8.46;71.99;96439.03;5087050;28;20662;-72
2022/01/25 01:37:53;;;;;;;5.93;5.33;;;;;;;-8.35;72.31;96427.34;5090054;28;20231;-71
2022/01/25 01:40:47;;;;;;;10.67;5.83;;;;;;;-8.21;72.47;96436.38;5088758;28;20717;-71
2022/01/25 01:43:28;;;;;;;10.40;5.97;;;;;;;-8.11;71.86;96427.91;5089192;28;21010;-71
2022/01/25 01:46:03;;;;;;;6.87;4.83;;;;;;;-8.07;72.04;96439.66;5090244;28;20205;-71
2022/01/25 01:48:32;;;;;;;7.57;5.57;;;;;;;-8.18;72.89;96435.72;5089476;28;21003;-71
2022/01/25 01:51:05;;;;;;;9.37;6.60;;;;;;;-8.25;73.56;96435.34;5087913;28;20208;-71
2022/01/25 01:53:35;;;;;;;8.17;6.80;;;;;;;-8.20;72.72;96403.56;5089224;28;20386;-71
2022/01/25 01:56:02;;;;;;;10.17;6.30;;;;;;;-7.99;73.21;96423.69;5088387;28;20641;-71
2022/01/25 01:58:29;;;;;;;9.27;6.87;;;;;;;-7.77;72.53;96426.63;5089540;28;20197;-70
2022/01/25 02:00:55;;;;;;;9.73;6.67;;;;;;;-7.62;71.88;96424.19;5088612;28;20250;-71
2022/01/25 02:03:23;;;;;;;8.43;7.27;;;;;;;-7.73;70.83;96406.31;5088911;28;20201;-70
2022/01/25 02:05:50;;;;;;;9.33;6.33;;;;;;;-8.10;72.51;96414.81;5088418;28;20226;-71
2022/01/25 02:08:17;;;;;;;14.10;8.47;;;;;;;-8.05;72.97;96418.41;5089228;28;20197;-70
2022/01/25 02:10:45;;;;;;;16.10;7.33;;;;;;;-8.39;73.06;96411.50;5089016;28;20254;-71
2022/01/25 02:13:12;;;;;;;13.73;8.97;;;;;;;-8.50;73.79;96416.56;5088673;28;20193;-71
2022/01/25 02:15:44;;;;;;;11.67;7.90;;;;;;;-8.37;73.57;96419.00;5088536;28;20201;-71
2022/01/25 02:23:43;;;;;;;8.27;6.60;;;;;;;-8.68;75.02;96404.00;5089251;28;20355;-71
2022/01/25 02:26:11;;;;;;;7.60;6.20;;;;;;;-8.65;76.24;96401.69;5088741;28;20189;-71
2022/01/25 02:28:41;;;;;;;12.27;7.07;;;;;;;-8.59;76.41;96407.00;5086496;28;20229;-71
2022/01/25 02:31:10;;;;;;;10.93;6.67;;;;;;;-8.79;77.44;96397.56;5086752;28;20234;-71
2022/01/25 02:33:37;;;;;;;10.97;7.50;;;;;;;-8.57;77.30;96389.84;5085700;28;20297;-70
2022/01/25 02:36:08;;;;;;;12.03;6.77;;;;;;;-8.59;77.84;96395.53;5087788;28;20265;-71
2022/01/25 02:38:35;;;;;;;11.40;6.87;;;;;;;-8.40;77.42;96385.13;5089504;28;20682;-70
2022/01/25 02:41:03;;;;;;;11.50;7.10;;;;;;;-8.41;77.31;96378.50;5085086;28;20193;-71
2022/01/25 02:43:30;;;;;;;12.83;7.53;;;;;;;-8.20;76.93;96391.25;5086589;28;20687;-70
2022/01/25 02:46:20;;;;;;;12.00;7.83;;;;;;;-8.22;76.77;96365.63;5087010;28;20234;-70
2022/01/25 02:48:55;;;;;;;11.73;7.07;;;;;;;-7.90;75.86;96389.66;5088192;28;20220;-71
2022/01/25 02:51:25;;;;;;;13.67;7.67;;;;;;;-8.13;75.99;96389.97;5083202;28;20201;-70
2022/01/25 02:53:52;;;;;;;11.97;7.60;;;;;;;-8.46;77.22;96384.81;5083858;28;20233;-70
2022/01/25 02:56:19;;;;;;;9.93;6.77;;;;;;;-8.47;76.84;96380.63;5086050;28;20207;-71
2022/01/25 02:58:46;;;;;;;9.53;7.73;;;;;;;-8.43;77.01;96377.59;5086347;28;20193;-71
2022/01/25 03:01:14;;;;;;;12.50;7.47;;;;;;;-8.64;77.47;96381.22;5086376;28;20209;-71
2022/01/25 03:03:42;;;;;;;11.20;7.30;;;;;;;-8.80;78.63;96376.13;5086211;28;20197;-71
2022/01/25 03:06:08;;;;;;;22.37;8.70;;;;;;;-8.88;78.67;96375.66;5087682;28;20205;-70
2022/01/25 03:08:38;;;;;;;15.40;8.50;;;;;;;-8.95;79.04;96369.53;5085759;28;20205;-70
2022/01/25 03:11:04;;;;;;;15.50;9.07;;;;;;;-8.70;77.33;96371.00;5088274;28;20209;-71
2022/01/25 03:13:36;;;;;;;12.00;7.27;;;;;;;-8.41;76.86;96367.81;5088668;28;20205;-71
2022/01/25 03:16:03;;;;;;;11.20;7.90;;;;;;;-8.54;76.19;96381.03;5088127;28;20248;-70
2022/01/25 03:18:44;;;;;;;14.23;8.67;;;;;;;-9.09;77.59;96376.81;5088815;28;20205;-70
2022/01/25 03:23:59;;;;;;;17.07;8.67;;;;;;;-9.22;78.98;96377.69;5088073;28;20336;-71
2022/01/25 03:26:26;;;;;;;18.63;9.67;;;;;;;-9.44;79.12;96377.97;5087970;28;20672;-70
2022/01/25 03:28:54;;;;;;;20.87;9.67;;;;;;;-9.33;79.35;96366.31;5088567;28;20728;-71
2022/01/25 03:31:21;;;;;;;17.77;10.40;;;;;;;-9.24;77.74;96371.81;5087166;28;20224;-70
2022/01/25 03:33:48;;;;;;;21.10;10.57;;;;;;;-9.05;77.55;96374.63;5088271;28;20225;-70
2022/01/25 03:36:16;;;;;;;20.07;11.07;;;;;;;-9.23;77.21;96375.13;5088437;28;20660;-70
2022/01/25 03:38:43;;;;;;;18.57;11.67;;;;;;;-9.86;78.37;96370.28;5088294;28;20193;-70
2022/01/25 03:41:14;;;;;;;21.83;10.87;;;;;;;-10.08;79.56;96365.59;5087972;28;20205;-69
2022/01/25 03:43:42;;;;;;;21.43;13.17;;;;;;;-9.90;79.70;96369.25;5087159;28;20209;-72
2022/01/25 03:46:14;;;;;;;21.80;12.20;;;;;;;-9.91;79.27;96364.25;5088389;28;20279;-69
2022/01/25 03:51:25;;;;;;;15.70;10.03;;;;;;;-9.33;78.12;96367.16;5087579;28;20359;-71
2022/01/25 03:53:53;;;;;;;20.80;10.43;;;;;;;-9.50;78.74;96366.88;5091600;28;20710;-71
2022/01/25 03:56:22;;;;;;;23.20;10.93;;;;;;;-9.25;78.25;96354.47;5090774;28;20246;-70
2022/01/25 03:58:49;;;;;;;20.33;9.40;;;;;;;-9.22;78.75;96357.13;5091721;28;20209;-70
2022/01/25 04:01:16;;;;;;;17.23;11.03;;;;;;;-9.13;77.76;96361.00;5090858;28;20231;-70
2022/01/25 04:03:50;;;;;;;18.30;9.57;;;;;;;-9.06;77.84;96353.22;5091254;28;20288;-69
2022/01/25 04:06:20;;;;;;;11.80;8.43;;;;;;;-8.85;77.51;96358.59;5092113;28;20197;-69
2022/01/25 04:08:47;;;;;;;13.90;8.43;;;;;;;-8.97;77.41;96351.34;5091547;28;20194;-70
2022/01/25 04:11:13;;;;;;;15.50;8.27;;;;;;;-9.00;77.77;96365.94;5091249;28;20243;-71
2022/01/25 04:13:42;;;;;;;16.03;9.83;;;;;;;-9.03;77.80;96357.50;5090851;28;20250;-71
2022/01/25 04:16:13;;;;;;;11.40;8.23;;;;;;;-8.93;77.62;96358.16;5091314;28;20205;-72
2022/01/25 04:18:54;;;;;;;16.97;7.50;;;;;;;-8.87;78.14;96350.28;5091424;28;20201;-70
2022/01/25 04:21:44;;;;;;;11.63;6.90;;;;;;;-8.89;77.87;96346.84;5090810;28;20209;-70
2022/01/25 04:26:57;;;;;;;11.57;8.23;;;;;;;-8.68;77.21;96354.72;5090941;28;20261;-71
2022/01/25 04:29:26;;;;;;;15.80;9.23;;;;;;;-8.75;76.72;96350.16;5090439;28;20209;-71
2022/01/25 04:31:54;;;;;;;16.87;9.77;;;;;;;-8.82;76.49;96362.88;5090432;28;20681;-71
2022/01/25 04:34:40;;;;;;;12.17;7.77;;;;;;;-9.16;77.56;96346.06;5090933;28;20706;-71
2022/01/25 04:51:09;;;;;;;14.30;6.13;;;;;;;-9.38;79.34;96350.38;5090255;28;20614;-71
2022/01/25 04:53:45;;;;;;;11.37;7.83;;;;;;;-9.42;79.56;96350.97;5089804;28;20201;-71
2022/01/25 04:56:18;;;;;;;11.60;7.47;;;;;;;-9.38;79.05;96346.31;5090703;27;20550;-71
2022/01/25 04:58:52;;;;;;;21.67;9.80;;;;;;;-9.36;79.15;96346.41;5089901;28;20197;-71
2022/01/25 05:01:20;;;;;;;9.17;6.07;;;;;;;-9.38;78.93;96338.94;5090408;28;20587;-71
2022/01/25 05:04:02;;;;;;;15.73;9.43;;;;;;;-9.49;78.75;96339.03;5090445;28;20202;-71
2022/01/25 05:06:30;;;;;;;15.50;8.97;;;;;;;-9.35;79.41;96338.28;5090157;28;20205;-70
2022/01/25 05:09:06;;;;;;;11.60;7.17;;;;;;;-9.41;79.44;96340.38;5089430;28;20194;-70
2022/01/25 05:11:35;;;;;;;11.73;8.43;;;;;;;-9.47;81.40;96343.31;5090498;28;21094;-70
2022/01/25 05:14:15;;;;;;;19.93;11.10;;;;;;;-9.61;80.16;96344.03;5089980;28;20201;-71
2022/01/25 05:16:52;;;;;;;18.80;10.23;;;;;;;-9.85;81.92;96340.88;5090328;28;20201;-71
2022/01/25 05:19:35;;;;;;;14.97;9.23;;;;;;;-9.82;82.14;96341.06;5090306;28;20679;-70
2022/01/25 05:22:05;;;;;;;15.60;8.40;;;;;;;-9.74;82.13;96347.34;5089592;28;20675;-71
2022/01/25 05:24:32;;;;;;;19.10;10.03;;;;;;;-9.61;81.83;96339.97;5089792;28;20208;-70
2022/01/25 05:26:59;;;;;;;16.23;9.20;;;;;;;-9.49;81.96;96336.56;5089040;28;20755;-70
2022/01/25 05:29:26;;;;;;;17.63;8.87;;;;;;;-9.14;80.34;96329.75;5088529;28;20599;-70
2022/01/25 05:31:54;;;;;;;21.83;11.33;;;;;;;-9.22;79.94;96330.91;5089900;28;20213;-70
2022/01/25 05:34:21;;;;;;;21.03;10.90;;;;;;;-9.26;80.29;96326.53;5088155;28;20232;-72
2022/01/25 05:36:48;;;;;;;16.97;8.07;;;;;;;-9.06;79.94;96323.69;5089204;28;20696;-70
2022/01/25 05:39:18;;;;;;;18.37;11.13;;;;;;;-9.26;79.45;96314.25;5088752;28;20263;-69
2022/01/25 05:41:53;;;;;;;15.70;9.87;;;;;;;-9.48;80.62;96307.16;5089672;28;20288;-70
2022/01/25 05:44:26;;;;;;;17.33;9.90;;;;;;;-9.41;80.66;96313.31;5089834;28;20464;-73
2022/01/25 05:47:05;;;;;;;19.13;9.03;;;;;;;-9.28;79.79;96308.38;5088665;28;20301;-70
2022/01/25 05:49:33;;;;;;;12.90;8.17;;;;;;;-9.29;79.68;96304.19;5088928;28;20228;-71
2022/01/25 05:52:00;;;;;;;16.47;9.57;;;;;;;-9.17;81.83;96312.34;5088957;28;20266;-73
2022/01/25 05:54:27;;;;;;;23.20;10.33;;;;;;;-9.10;80.69;96321.78;5089530;28;20764;-71
2022/01/25 05:56:54;;;;;;;17.80;7.97;;;;;;;-9.31;80.47;96320.47;5088484;28;20209;-70
2022/01/25 05:59:21;;;;;;;16.93;10.50;;;;;;;-9.26;80.08;96321.63;5088286;28;20254;-70
2022/01/25 06:01:48;;;;;;;16.47;8.17;;;;;;;-9.18;79.11;96310.66;5089593;28;20250;-71
2022/01/25 06:04:17;;;;;;;18.57;10.87;;;;;;;-9.15;78.94;96320.66;5089380;28;20290;-70
2022/01/25 06:06:46;;;;;;;18.17;10.23;;;;;;;-9.14;79.28;96329.75;5088555;28;20201;-71
2022/01/25 06:09:13;;;;;;;14.30;9.37;;;;;;;-8.95;78.85;96327.66;5088732;28;20201;-71
2022/01/25 06:11:40;;;;;;;12.53;8.80;;;;;;;-8.86;77.73;96331.41;5088950;28;20201;-69
2022/01/25 06:14:06;;;;;;;17.90;10.20;;;;;;;-9.00;78.37;96330.59;5089532;28;20196;-71
2022/01/25 06:16:33;;;;;;;19.73;9.37;;;;;;;-9.09;79.48;96325.97;5088234;28;20240;-69
2022/01/25 06:19:00;;;;;;;18.50;10.47;;;;;;;-8.79;78.60;96328.56;5087963;28;20198;-72
2022/01/25 06:21:29;;;;;;;11.33;9.80;;;;;;;-8.78;77.03;96330.28;5088917;28;20280;-70
2022/01/25 06:23:57;;;;;;;15.97;9.50;;;;;;;-8.94;78.04;96334.28;5088143;28;20236;-70
2022/01/25 06:26:24;;;;;;;14.87;8.80;;;;;;;-8.72;77.21;96331.50;5088234;28;20201;-71
2022/01/25 06:28:50;;;;;;;12.37;9.37;;;;;;;-8.51;76.95;96326.97;5088717;28;20204;-71
2022/01/25 06:31:18;;;;;;;18.10;11.93;;;;;;;-8.29;75.54;96324.97;5088638;28;20233;-71
2022/01/25 06:33:45;;;;;;;25.97;11.20;;;;;;;-7.83;74.17;96302.91;5088779;28;20202;-70
2022/01/25 06:36:13;;;;;;;21.77;10.97;;;;;;;-6.61;72.10;96314.41;5088464;28;20220;-70
2022/01/25 06:38:41;;;;;;;19.67;10.07;;;;;;;-6.24;68.29;96322.94;5088413;28;20269;-71
2022/01/25 06:41:10;;;;;;;22.33;11.90;;;;;;;-6.15;67.02;96319.22;5088167;28;20205;-70
2022/01/25 06:43:37;;;;;;;20.20;10.70;;;;;;;-6.04;66.13;96313.19;5088661;28;20687;-68
2022/01/25 06:46:04;;;;;;;17.30;10.27;;;;;;;-6.57;67.24;96321.22;5088403;28;20266;-71
2022/01/25 06:48:32;;;;;;;19.23;11.20;;;;;;;-6.54;66.99;96306.56;5088484;28;20209;-71
2022/01/25 06:50:59;;;;;;;22.93;12.13;;;;;;;-6.96;67.72;96296.16;5087631;28;20244;-70
2022/01/25 06:53:26;;;;;;;20.53;11.17;;;;;;;-6.90;68.29;96298.06;5087650;28;20201;-69
2022/01/25 06:55:54;;;;;;;22.53;11.43;;;;;;;-7.06;68.67;96303.84;5087901;28;20665;-69
2022/01/25 06:58:21;;;;;;;23.87;12.23;;;;;;;-7.02;69.05;96302.38;5088527;28;20205;-71
2022/01/25 07:00:48;;;;;;;20.23;10.77;;;;;;;-7.08;69.77;96305.38;5088172;28;20262;-70
2022/01/25 07:03:15;;;;;;;18.47;10.73;;;;;;;-7.24;69.56;96307.81;5088232;28;20574;-69
2022/01/25 07:05:42;;;;;;;18.20;9.80;;;;;;;-7.08;69.45;96311.94;5088018;28;20198;-69
2022/01/25 07:08:08;;;;;;;15.27;10.00;;;;;;;-7.15;69.48;96308.28;5088544;28;20760;-71
2022/01/25 07:10:35;;;;;;;16.57;9.77;;;;;;;-7.02;69.67;96310.66;5087760;28;20201;-71
2022/01/25 07:13:03;;;;;;;18.10;10.70;;;;;;;-7.07;69.42;96307.06;5088132;28;20210;-70
2022/01/25 07:15:30;;;;;;;13.53;8.80;;;;;;;-6.80;68.09;96299.41;5087791;28;20712;-71
2022/01/25 07:17:57;;;;;;;14.77;10.27;;;;;;;-7.02;68.30;96285.09;5088739;28;20582;-70
2022/01/25 07:20:24;;;;;;;19.90;10.73;;;;;;;-6.24;68.54;96285.84;5088221;28;20614;-70
2022/01/25 07:22:52;;;;;;;14.87;10.40;;;;;;;-4.68;64.99;96290.63;5088354;28;20337;-70
2022/01/25 07:25:19;;;;;;;14.07;9.50;;;;;;;-3.20;60.68;96290.16;5087890;28;20689;-70
2022/01/25 07:27:46;;;;;;;26.67;11.53;;;;;;;-2.20;56.23;96281.41;5092021;27;20206;-70
2022/01/25 07:30:15;;;;;;;18.80;10.57;;;;;;;-1.40;53.24;96284.91;5092052;28;20707;-69
2022/01/25 07:32:41;;;;;;;14.40;9.83;;;;;;;-1.71;54.22;96271.44;5091819;28;20205;-70
2022/01/25 07:35:09;;;;;;;14.17;8.77;;;;;;;-1.41;54.76;96269.09;5092047;28;20275;-70
2022/01/25 07:37:35;;;;;;;27.87;13.97;;;;;;;-0.76;50.60;96264.41;5091296;28;20744;-71
2022/01/25 07:40:03;;;;;;;26.47;10.33;;;;;;;-0.06;48.54;96271.34;5091199;28;20201;-71
2022/01/25 07:42:33;;;;;;;16.87;9.73;;;;;;;0.07;47.23;96265.00;5092576;28;20205;-71
2022/01/25 07:45:00;;;;;;;16.77;10.73;;;;;;;0.81;47.76;96261.84;5092215;28;20659;-71
2022/01/25 07:47:28;;;;;;;16.37;9.87;;;;;;;1.45;44.43;96273.28;5091279;28;20201;-70
2022/01/25 07:49:55;;;;;;;17.93;11.03;;;;;;;2.12;44.81;96263.72;5091836;28;20346;-70
2022/01/25 07:52:22;;;;;;;15.10;10.67;;;;;;;1.90;44.33;96258.31;5091024;28;20201;-70
2022/01/25 07:54:48;;;;;;;16.30;10.87;;;;;;;1.55;45.32;96266.78;5091147;28;20205;-70
2022/01/25 07:57:15;;;;;;;20.97;9.67;;;;;;;1.14;44.18;96274.28;5091533;28;20708;-70
2022/01/25 07:59:42;;;;;;;19.13;10.97;;;;;;;1.58;42.49;96264.34;5091431;28;20208;-70
2022/01/25 08:02:12;;;;;;;20.00;12.40;;;;;;;1.55;42.58;96265.13;5090455;28;20208;-70
2022/01/25 08:04:40;;;;;;;20.10;11.70;;;;;;;0.81;43.52;96271.00;5092390;28;20205;-70
2022/01/25 08:07:07;;;;;;;17.30;11.17;;;;;;;0.10;45.80;96272.59;5091311;28;20208;-70
2022/01/25 08:09:34;;;;;;;17.50;10.53;;;;;;;-0.66;47.80;96273.00;5090691;28;20202;-71
2022/01/25 08:12:00;;;;;;;20.73;11.87;;;;;;;-0.87;49.52;96271.56;5091092;28;20261;-70
2022/01/25 08:14:27;;;;;;;20.40;11.00;;;;;;;0.02;48.12;96276.53;5088802;28;21270;-70
2022/01/25 08:16:54;;;;;;;20.10;11.60;;;;;;;0.23;46.38;96259.63;5091308;28;20229;-71
2022/01/25 08:19:21;;;;;;;19.03;11.93;;;;;;;0.98;45.06;96270.59;5090609;28;20262;-70
2022/01/25 08:21:50;;;;;;;20.87;10.77;;;;;;;2.23;42.93;96268.09;5090846;28;20201;-70
2022/01/25 08:24:19;;;;;;;19.60;11.03;;;;;;;3.22;40.62;96252.06;5091264;28;20245;-70
2022/01/25 08:26:47;;;;;;;19.23;12.83;;;;;;;4.65;38.09;96246.13;5090481;28;20296;-71
2022/01/25 08:29:15;;;;;;;19.03;11.43;;;;;;;5.80;35.47;96243.44;5090977;28;20201;-71
2022/01/25 08:31:42;;;;;;;18.03;11.50;;;;;;;5.74;34.90;96247.63;5090734;28;20232;-70
2022/01/25 08:34:11;;;;;;;20.50;11.37;;;;;;;6.74;33.80;96252.91;5091378;28;20215;-70
2022/01/25 08:36:38;;;;;;;17.77;11.73;;;;;;;5.22;33.69;96247.34;5090646;28;20224;-70
2022/01/25 08:39:07;;;;;;;20.57;12.13;;;;;;;5.37;34.71;96236.53;5089818;28;20657;-69
2022/01/25 08:41:34;;;;;;;20.57;10.93;;;;;;;6.90;32.86;96233.56;5090021;28;20257;-70
2022/01/25 08:44:01;;;;;;;20.73;12.10;;;;;;;6.99;31.63;96232.69;5090721;28;20209;-70
2022/01/25 08:46:27;;;;;;;16.63;10.37;;;;;;;6.61;31.99;96232.72;5091481;28;20266;-71
2022/01/25 08:48:54;;;;;;;16.07;10.50;;;;;;;4.26;35.83;96228.16;5090315;28;20249;-70
2022/01/25 08:51:21;;;;;;;14.70;11.00;;;;;;;4.92;35.86;96222.00;5090635;28;20229;-70
2022/01/25 08:53:48;;;;;;;17.07;10.77;;;;;;;5.98;34.12;96217.47;5090863;28;20202;-69
2022/01/25 08:56:16;;;;;;;21.03;10.77;;;;;;;6.48;32.29;96230.16;5090151;28;20772;-70
2022/01/25 08:58:43;;;;;;;18.00;10.53;;;;;;;5.91;33.26;96230.91;5090749;28;20282;-70
2022/01/25 09:01:10;;;;;;;18.30;11.20;;;;;;;6.00;32.88;96200.63;5086954;28;20263;-70
2022/01/25 09:03:37;;;;;;;13.33;9.87;;;;;;;7.07;31.53;96225.94;5088865;28;20197;-70
2022/01/25 09:06:04;;;;;;;20.87;10.87;;;;;;;5.10;33.91;96227.13;5088624;28;20208;-70
2022/01/25 09:08:32;;;;;;;14.93;10.27;;;;;;;4.10;36.43;96217.94;5090714;28;20219;-73
2022/01/25 09:11:01;;;;;;;21.20;12.03;;;;;;;3.79;38.00;96215.94;5089849;28;20193;-71
2022/01/25 09:13:30;;;;;;;18.47;11.00;;;;;;;4.38;36.58;96211.50;5090268;28;20216;-71
2022/01/25 09:15:57;;;;;;;17.73;10.23;;;;;;;4.34;36.32;96203.91;5089897;28;20671;-71
2022/01/25 09:18:24;;;;;;;16.60;10.80;;;;;;;3.72;37.55;96214.16;5088715;28;20846;-72
2022/01/25 09:20:50;;;;;;;16.60;9.70;;;;;;;4.05;39.04;96204.47;5088292;28;20209;-76
2022/01/25 09:23:19;;;;;;;16.57;10.40;;;;;;;4.13;37.93;96207.06;5086403;28;20277;-71
2022/01/25 09:25:47;;;;;;;14.77;9.67;;;;;;;3.53;38.00;96212.28;5088651;28;20229;-70
2022/01/25 09:28:14;;;;;;;13.53;8.90;;;;;;;3.11;39.00;96205.88;5086894;28;20724;-71
2022/01/25 09:30:43;;;;;;;17.13;11.10;;;;;;;2.77;39.68;96206.22;5087907;28;20777;-71
2022/01/25 09:33:10;;;;;;;13.30;9.83;;;;;;;1.40;42.63;96208.88;5089618;28;20270;-70
2022/01/25 09:35:37;;;;;;;18.60;10.60;;;;;;;0.75;43.75;96206.66;5088648;28;21313;-71
2022/01/25 09:38:04;;;;;;;17.37;10.90;;;;;;;0.69;44.17;96209.03;5090001;28;20238;-70
2022/01/25 09:40:31;;;;;;;13.23;9.17;;;;;;;0.43;45.24;96198.44;5088927;28;20262;-71
2022/01/25 09:42:58;;;;;;;15.00;10.33;;;;;;;0.30;45.95;96202.28;5090734;28;20277;-71
2022/01/25 09:45:27;;;;;;;22.10;9.17;;;;;;;0.22;45.70;96197.94;5089145;28;20693;-70
2022/01/25 09:47:55;;;;;;;39.20;18.40;;;;;;;-0.07;50.92;96195.53;5089450;28;20277;-72
2022/01/25 09:50:23;;;;;;;31.10;16.60;;;;;;;0.35;49.54;96194.91;5088076;28;20198;-70
2022/01/25 09:52:50;;;;;;;31.20;15.23;;;;;;;0.86;49.16;96177.72;5089280;28;20197;-70
2022/01/25 09:55:22;;;;;;;25.13;12.27;;;;;;;1.26;46.39;96191.91;5089555;28;20196;-70
2022/01/25 09:57:49;;;;;;;16.00;10.30;;;;;;;1.05;45.10;96163.06;5089221;28;20209;-70
2022/01/25 10:00:19;;;;;;;15.70;10.67;;;;;;;-0.01;47.54;96180.72;5089049;28;20273;-70
2022/01/25 10:02:54;;;;;;;20.27;11.27;;;;;;;-0.69;49.33;96189.72;5088986;28;20226;-69
2022/01/25 10:05:28;;;;;;;15.63;10.03;;;;;;;-1.27;51.01;96184.75;5089452;28;20287;-70
2022/01/25 10:08:06;;;;;;;17.40;10.60;;;;;;;-1.78;52.35;96174.03;5089584;28;20284;-72
2022/01/25 10:10:35;;;;;;;17.77;10.20;;;;;;;-1.47;52.45;96180.78;5089405;28;20284;-70
2022/01/25 10:13:10;;;;;;;17.30;10.57;;;;;;;-1.43;52.64;96178.44;5089856;28;20242;-73
2022/01/25 10:15:37;;;;;;;18.63;11.17;;;;;;;-1.45;51.99;96174.19;5086297;28;20192;-71
2022/01/25 10:18:05;;;;;;;20.53;10.17;;;;;;;-1.69;53.36;96163.50;5089723;28;20197;-73
2022/01/25 10:20:36;;;;;;;18.47;11.30;;;;;;;-2.05;53.91;96164.03;5088599;28;20205;-70
2022/01/25 10:23:09;;;;;;;18.63;9.93;;;;;;;-2.03;54.25;96159.97;5088403;28;20236;-72
2022/01/25 10:25:38;;;;;;;18.10;10.10;;;;;;;-2.03;53.68;96154.97;5087858;28;20213;-70
2022/01/25 10:28:11;;;;;;;15.17;9.27;;;;;;;-1.98;54.31;96162.59;5087155;28;20211;-71
2022/01/25 10:30:46;;;;;;;17.10;9.90;;;;;;;-2.13;55.30;96161.28;5085395;28;20232;-70
2022/01/25 10:33:25;;;;;;;21.20;10.67;;;;;;;-2.07;55.26;96166.47;5087956;28;20212;-70
2022/01/25 10:35:54;;;;;;;15.07;9.00;;;;;;;-2.15;55.70;96162.88;5088383;28;20229;-70
2022/01/25 10:38:23;;;;;;;15.40;9.03;;;;;;;-1.96;54.31;96153.50;5086343;28;20204;-70
2022/01/25 10:40:58;;;;;;;17.83;10.33;;;;;;;-2.52;56.14;96135.09;5087548;28;20197;-70
2022/01/25 10:43:27;;;;;;;18.90;10.20;;;;;;;-2.28;55.67;96150.00;5088472;28;20250;-70
2022/01/25 10:46:09;;;;;;;17.10;11.00;;;;;;;-1.98;56.38;96147.66;5089702;28;20219;-69
2022/01/25 10:48:36;;;;;;;19.43;10.87;;;;;;;-1.67;55.40;96144.44;5088335;28;20196;-69
2022/01/25 10:51:07;;;;;;;19.53;10.07;;;;;;;-1.52;53.80;96134.97;5088970;28;20205;-70
2022/01/25 10:53:34;;;;;;;17.17;10.77;;;;;;;-1.61;54.16;96132.19;5089075;28;20203;-69
2022/01/25 10:56:01;;;;;;;22.67;10.40;;;;;;;-1.96;54.18;96123.59;5089885;28;20225;-71
2022/01/25 10:58:31;;;;;;;16.03;11.43;;;;;;;-2.13;55.37;96121.44;5088241;28;20581;-70
2022/01/25 11:00:59;;;;;;;22.13;10.50;;;;;;;-2.27;54.85;96104.38;5105844;28;20211;-69
2022/01/25 11:03:29;;;;;;;17.23;10.77;;;;;;;-2.33;55.35;96112.50;5111748;28;20626;-70
2022/01/25 11:05:57;;;;;;;16.20;9.53;;;;;;;-2.30;55.80;96117.56;5111436;28;20663;-69
2022/01/25 11:08:27;;;;;;;16.43;10.17;;;;;;;-2.32;55.84;96104.22;5112841;28;20196;-71
2022/01/25 11:10:57;;;;;;;17.33;9.83;;;;;;;-2.26;55.20;96099.47;5112980;28;20208;-70
2022/01/25 11:13:36;;;;;;;14.17;9.93;;;;;;;-2.17;55.70;96117.16;5113074;28;20203;-71
2022/01/25 11:16:06;;;;;;;18.73;8.97;;;;;;;-2.29;56.27;96105.97;5112878;28;20225;-70
2022/01/25 11:18:33;;;;;;;16.47;9.53;;;;;;;-2.46;56.83;96112.88;5112172;28;20197;-71
2022/01/25 11:21:01;;;;;;;20.03;10.63;;;;;;;-2.37;55.70;96095.75;5111380;28;20215;-71
2022/01/25 11:23:32;;;;;;;13.73;8.83;;;;;;;-2.66;56.46;96088.97;5111721;27;20328;-71
2022/01/25 11:26:01;;;;;;;15.80;10.23;;;;;;;-2.48;56.84;96109.53;5112192;28;20201;-71
2022/01/25 11:28:30;;;;;;;14.20;10.23;;;;;;;-2.28;55.65;96096.06;5111327;28;20251;-71
2022/01/25 11:31:00;;;;;;;20.07;10.47;;;;;;;-2.30;55.83;96086.84;5112851;28;20721;-71
2022/01/25 11:33:28;;;;;;;20.83;11.57;;;;;;;-2.22;56.25;96088.78;5112761;28;20250;-71
2022/01/25 11:35:55;;;;;;;18.03;10.53;;;;;;;-1.91;56.01;96084.75;5112723;28;20204;-70
2022/01/25 11:38:34;;;;;;;16.53;11.13;;;;;;;-1.97;55.96;96082.06;5112610;28;20197;-69
2022/01/25 11:41:01;;;;;;;20.30;11.07;;;;;;;-2.18;56.11;96078.13;5112324;28;20193;-70
2022/01/25 11:43:28;;;;;;;19.80;10.63;;;;;;;-2.36;56.91;96069.22;5112377;28;20246;-70
2022/01/25 11:46:03;;;;;;;22.20;11.43;;;;;;;-2.28;56.76;96061.22;5112536;28;20189;-70
2022/01/25 11:48:38;;;;;;;16.53;10.10;;;;;;;-2.28;57.05;96061.22;5112552;28;20253;-69
2022/01/25 11:51:12;;;;;;;15.73;9.20;;;;;;;-2.19;55.99;96066.47;5112732;28;20249;-71
2022/01/25 11:53:44;;;;;;;15.93;10.13;;;;;;;-2.37;57.33;96063.41;5112340;28;20275;-70
2022/01/25 11:56:12;;;;;;;21.03;9.90;;;;;;;-2.23;56.68;96054.75;5112745;28;20185;-71
2022/01/25 11:58:40;;;;;;;13.63;9.53;;;;;;;-2.08;56.30;96047.72;5112449;28;20225;-71
2022/01/25 12:01:17;;;;;;;19.87;10.43;;;;;;;-2.26;56.85;96061.25;5112326;28;20193;-70
2022/01/25 12:03:45;;;;;;;16.63;10.30;;;;;;;-2.43;57.50;96046.63;5112081;28;20192;-70
2022/01/25 12:06:19;;;;;;;19.37;10.97;;;;;;;-2.27;57.82;96047.13;5112441;28;20189;-70
2022/01/25 12:09:09;;;;;;;16.00;10.87;;;;;;;-2.17;57.38;96039.97;5112378;28;20193;-70
2022/01/25 12:11:42;;;;;;;24.40;10.97;;;;;;;-2.35;56.12;96041.91;5112630;28;20212;-71
2022/01/25 12:14:29;;;;;;;15.40;9.77;;;;;;;-2.46;56.30;96024.13;5110999;28;20201;-70
2022/01/25 12:17:11;;;;;;;12.87;9.40;;;;;;;-2.28;56.70;96036.31;5112393;28;20315;-71
2022/01/25 12:19:44;;;;;;;18.83;10.10;;;;;;;-2.59;56.72;96018.72;5112695;28;20232;-69
2022/01/25 12:22:40;;;;;;;14.80;10.20;;;;;;;-2.56;57.10;96033.75;5112752;27;20620;-70
2022/01/25 12:25:20;;;;;;;18.47;10.00;;;;;;;-2.25;57.13;96028.94;5093415;28;20660;-70
2022/01/25 12:27:52;;;;;;;17.77;10.33;;;;;;;-2.47;57.63;96026.56;5112712;28;20196;-71
2022/01/25 12:30:36;;;;;;;13.70;9.40;;;;;;;-2.51;57.26;96022.31;5112560;28;20225;-70
2022/01/25 12:33:05;;;;;;;16.23;10.17;;;;;;;-2.72;57.61;96016.66;5112452;28;20189;-70
2022/01/25 12:35:35;;;;;;;14.97;9.63;;;;;;;-2.61;58.30;96020.31;5112636;28;20197;-70
2022/01/25 12:38:05;;;;;;;21.03;10.33;;;;;;;-2.31;58.37;96006.34;5112635;28;20293;-70
2022/01/25 12:40:41;;;;;;;15.90;9.90;;;;;;;-2.17;56.94;96002.63;5112389;28;20246;-70
2022/01/25 12:43:10;;;;;;;13.40;9.73;;;;;;;-2.36;56.68;95995.41;5112010;28;20691;-69
2022/01/25 12:45:41;;;;;;;16.07;9.77;;;;;;;-2.59;57.58;96003.78;5112380;28;20201;-68
2022/01/25 12:48:09;;;;;;;15.17;9.70;;;;;;;-2.77;57.72;95986.66;5112918;28;20193;-68